createdAt,value
2023-05-01T12:38:41.304Z,36.85
2023-05-01T12:53:41.361Z,38.24
2023-05-01T13:08:42.501Z,35.34
2023-05-01T13:23:43.038Z,36.32
2023-05-01T13:38:42.856Z,35.42
2023-05-01T13:53:42.957Z,36.47
2023-05-01T14:08:43.407Z,35.85
2023-05-01T14:23:43.612Z,35.31
2023-05-01T14:38:43.684Z,35.06
2023-05-01T14:53:43.812Z,36.54
2023-05-01T15:08:44.001Z,32.68
2023-05-01T15:23:44.100Z,35.83
2023-05-01T15:38:44.133Z,36.73
2023-05-01T15:53:44.215Z,39.31
2023-05-01T16:08:44.332Z,39.54
2023-05-01T16:23:44.407Z,40.30
2023-05-01T16:38:44.551Z,41.49
2023-05-01T16:53:44.601Z,41.88
2023-05-01T17:08:44.877Z,45.47
2023-05-01T17:23:44.775Z,47.94
2023-05-01T17:38:44.972Z,52.64
2023-05-01T17:53:44.956Z,57.68
2023-05-01T18:08:45.582Z,62.62
2023-05-01T18:23:47.806Z,63.84
2023-05-01T18:38:49.792Z,68.73
2023-05-01T18:53:49.918Z,70.96
2023-05-01T19:08:49.923Z,75.19
2023-05-01T19:23:50.004Z,73.36
2023-05-01T19:38:50.192Z,73.64
2023-05-01T19:53:50.755Z,80.23
2023-05-01T20:08:50.780Z,81.94
2023-05-01T20:23:51.237Z,86.00
2023-05-01T20:38:51.109Z,88.90
2023-05-01T20:53:51.154Z,87.88
2023-05-01T21:08:51.303Z,90.88
2023-05-01T21:23:51.362Z,90.72
2023-05-01T21:38:51.523Z,89.65
2023-05-01T21:53:51.607Z,93.18
2023-05-01T22:08:51.722Z,92.50
2023-05-01T22:23:52.340Z,93.77
2023-05-01T22:38:52.418Z,93.71
2023-05-01T22:53:52.543Z,94.48
2023-05-01T23:08:53.763Z,95.40
2023-05-01T23:23:53.815Z,94.77
2023-05-01T23:38:53.886Z,94.77
2023-05-01T23:53:53.937Z,93.93
